createdAt,value
2022-11-12T00:01:41.928Z,94.00
2022-11-12T00:04:28.011Z,93.90
2022-11-12T00:07:14.048Z,94.00
2022-11-12T00:10:00.077Z,94.10
2022-11-12T00:12:45.784Z,94.10
2022-11-12T00:15:31.991Z,94.00
2022-11-12T00:18:17.718Z,93.90
2022-11-12T00:21:03.241Z,93.90
2022-11-12T00:23:48.947Z,94.00
2022-11-12T00:26:35.062Z,94.00
2022-11-12T00:29:20.754Z,94.00
2022-11-12T00:32:07.577Z,93.90
2022-11-12T00:34:53.383Z,93.70
2022-11-12T00:37:39.490Z,93.70
2022-11-12T00:40:25.647Z,93.70
2022-11-12T00:43:11.386Z,93.80
2022-11-12T00:45:57.507Z,94.00
2022-11-12T00:48:43.571Z,94.10
2022-11-12T00:51:29.421Z,94.20
2022-11-12T00:54:15.588Z,94.30
2022-11-12T00:57:01.468Z,94.40
2022-11-12T00:59:47.551Z,94.50
2022-11-12T01:02:38.584Z,94.60
2022-11-12T01:05:28.292Z,94.60
2022-11-12T01:08:14.148Z,94.60
2022-11-12T01:11:12.012Z,94.70
2022-11-12T01:14:04.253Z,94.60
2022-11-12T01:16:50.161Z,94.60
2022-11-12T01:19:36.358Z,94.60
2022-11-12T01:22:22.208Z,94.60
2022-11-12T01:25:08.502Z,94.60
2022-11-12T01:27:54.148Z,94.50
2022-11-12T01:30:40.167Z,94.40
2022-11-12T01:33:26.481Z,94.60
2022-11-12T01:36:13.962Z,94.50
2022-11-12T01:38:59.849Z,94.40
2022-11-12T01:41:46.049Z,94.40
2022-11-12T01:44:42.188Z,94.30
2022-11-12T01:47:31.569Z,94.20
2022-11-12T01:50:32.237Z,94.20
2022-11-12T01:53:19.894Z,94.10
2022-11-12T01:56:06.805Z,94.10
2022-11-12T01:59:08.064Z,94.20
2022-11-12T02:01:53.793Z,94.20
2022-11-12T02:04:42.297Z,94.20
2022-11-12T02:07:30.860Z,94.10
2022-11-12T02:10:17.008Z,94.00
2022-11-12T02:13:21.290Z,93.70
2022-11-12T02:16:08.965Z,93.50
2022-11-12T02:18:54.706Z,93.50
2022-11-12T02:21:40.948Z,93.70
2022-11-12T02:24:26.528Z,93.70
2022-11-12T02:27:13.015Z,93.70
2022-11-12T02:29:59.343Z,93.60
2022-11-12T02:32:45.085Z,93.50
2022-11-12T02:35:31.557Z,93.40
2022-11-12T02:38:17.314Z,93.40
2022-11-12T02:41:03.259Z,93.30
2022-11-12T02:43:48.991Z,93.40
2022-11-12T02:46:35.067Z,93.40
2022-11-12T02:49:20.640Z,93.30
2022-11-12T02:52:07.255Z,93.20
2022-11-12T02:54:53.178Z,93.00
2022-11-12T02:57:40.351Z,93.00
2022-11-12T03:00:26.770Z,93.00
2022-11-12T03:03:13.104Z,93.10
2022-11-12T03:06:01.007Z,93.20
2022-11-12T03:08:47.476Z,93.30
2022-11-12T03:11:33.355Z,93.40
2022-11-12T03:14:19.342Z,93.40
2022-11-12T03:17:05.478Z,93.40
2022-11-12T03:19:51.237Z,93.30
2022-11-12T03:22:38.338Z,93.40
2022-11-12T03:25:25.579Z,93.40
2022-11-12T03:28:14.455Z,93.60
2022-11-12T03:31:01.360Z,93.50
2022-11-12T03:33:47.161Z,93.40
2022-11-12T03:36:33.123Z,93.30
2022-11-12T03:39:19.354Z,93.40
2022-11-12T03:42:05.412Z,93.50
2022-11-12T03:44:51.396Z,93.70
2022-11-12T03:47:40.135Z,93.70
2022-11-12T03:50:28.650Z,93.60
2022-11-12T03:53:14.817Z,93.70
2022-11-12T03:56:00.460Z,93.80
2022-11-12T03:58:46.449Z,94.00
2022-11-12T04:01:32.533Z,94.00
2022-11-12T04:04:18.254Z,94.10
2022-11-12T04:07:22.439Z,94.10
2022-11-12T04:10:08.682Z,94.00
2022-11-12T04:13:13.123Z,94.00
2022-11-12T04:16:27.050Z,94.00
2022-11-12T04:19:32.217Z,94.00
2022-11-12T04:22:18.367Z,93.90
2022-11-12T04:25:23.600Z,93.90
2022-11-12T04:28:09.362Z,93.90
2022-11-12T04:30:55.298Z,93.90
2022-11-12T04:33:41.536Z,93.90
2022-11-12T04:36:27.251Z,94.00
2022-11-12T04:39:13.009Z,94.10
2022-11-12T04:42:18.019Z,94.10
2022-11-12T04:45:09.689Z,94.20
2022-11-12T04:47:55.785Z,94.20
2022-11-12T04:50:43.343Z,94.20
2022-11-12T04:53:30.333Z,94.30
2022-11-12T04:56:15.898Z,94.30
2022-11-12T04:59:01.679Z,94.30
2022-11-12T05:01:47.551Z,94.30
2022-11-12T05:04:33.440Z,94.30
2022-11-12T05:07:19.881Z,94.20
2022-11-12T05:10:06.313Z,94.00
2022-11-12T05:12:52.042Z,93.90
2022-11-12T05:15:38.110Z,93.80
2022-11-12T05:18:23.843Z,93.80
2022-11-12T05:21:28.478Z,93.90
2022-11-12T05:24:40.077Z,94.00
2022-11-12T05:27:21.417Z,94.00
2022-11-12T05:30:08.477Z,94.10
2022-11-12T05:32:54.498Z,94.20
2022-11-12T05:35:40.475Z,94.20
2022-11-12T05:38:26.439Z,94.20
2022-11-12T05:41:17.295Z,94.30
2022-11-12T05:44:05.847Z,94.30
2022-11-12T05:46:51.691Z,94.20
2022-11-12T05:49:37.318Z,94.20
2022-11-12T05:52:23.216Z,94.10
2022-11-12T05:55:09.373Z,94.10
2022-11-12T05:57:55.143Z,94.10
2022-11-12T06:00:40.962Z,94.10
2022-11-12T06:03:27.198Z,94.10
2022-11-12T06:06:13.274Z,94.10
2022-11-12T06:08:58.958Z,94.20
2022-11-12T06:11:44.659Z,94.20
2022-11-12T06:14:30.602Z,94.30
2022-11-12T06:17:16.685Z,94.20
2022-11-12T06:20:02.502Z,94.20
2022-11-12T06:22:49.090Z,94.30
2022-11-12T06:25:34.804Z,94.30
2022-11-12T06:28:20.792Z,94.30
2022-11-12T06:31:06.672Z,94.30
2022-11-12T06:33:52.387Z,94.20
2022-11-12T06:36:38.674Z,94.10
2022-11-12T06:39:25.009Z,94.00
2022-11-12T06:42:11.114Z,93.90
2022-11-12T06:44:56.907Z,93.80
2022-11-12T06:47:43.047Z,93.70
2022-11-12T06:50:28.674Z,93.50
2022-11-12T06:53:14.494Z,93.50
2022-11-12T06:56:05.570Z,93.40
2022-11-12T06:58:51.641Z,93.50
2022-11-12T07:01:37.698Z,93.60
2022-11-12T07:04:25.226Z,93.60
2022-11-12T07:07:11.302Z,93.50
2022-11-12T07:09:57.721Z,93.40
2022-11-12T07:12:43.591Z,93.20
2022-11-12T07:15:29.528Z,93.10
2022-11-12T07:18:15.533Z,92.90
2022-11-12T07:21:03.584Z,92.80
2022-11-12T07:23:49.503Z,92.60
2022-11-12T07:26:35.060Z,92.50
2022-11-12T07:29:42.581Z,92.50
2022-11-12T07:32:26.924Z,92.50
2022-11-12T07:35:12.771Z,92.40
2022-11-12T07:37:59.798Z,92.30
2022-11-12T07:40:45.580Z,92.20
2022-11-12T07:43:35.153Z,92.20
2022-11-12T07:46:27.958Z,92.20
2022-11-12T07:49:14.092Z,92.20
2022-11-12T07:51:59.781Z,92.20
2022-11-12T07:54:45.467Z,92.40
2022-11-12T07:57:34.113Z,92.70
2022-11-12T08:00:20.095Z,92.60
2022-11-12T08:03:06.204Z,92.30
2022-11-12T08:05:52.234Z,92.30
2022-11-12T08:08:38.077Z,92.50
2022-11-12T08:11:24.645Z,92.70
2022-11-12T08:14:10.324Z,93.00
2022-11-12T08:16:56.096Z,93.40
2022-11-12T08:19:42.182Z,92.90
2022-11-12T08:22:28.123Z,92.80
2022-11-12T08:25:14.001Z,92.80
2022-11-12T08:28:00.741Z,92.80
2022-11-12T08:30:46.489Z,92.70
2022-11-12T08:33:32.806Z,92.60
2022-11-12T08:36:19.146Z,92.70
2022-11-12T08:39:04.889Z,92.50
2022-11-12T08:41:50.687Z,92.30
2022-11-12T08:44:36.567Z,92.20
2022-11-12T08:47:22.303Z,92.00
2022-11-12T08:50:08.726Z,92.10
2022-11-12T08:53:00.673Z,91.80
2022-11-12T08:55:46.566Z,92.10
2022-11-12T08:58:32.641Z,92.20
2022-11-12T09:01:18.411Z,92.30
2022-11-12T09:04:04.668Z,92.30
2022-11-12T09:06:53.912Z,92.20
2022-11-12T09:09:40.195Z,92.20
2022-11-12T09:12:25.978Z,92.00
2022-11-12T09:18:18.587Z,91.80
2022-11-12T09:21:07.400Z,91.70
2022-11-12T09:23:53.446Z,91.50
2022-11-12T09:26:39.266Z,91.30
2022-11-12T09:29:25.244Z,91.00
2022-11-12T09:32:10.998Z,90.90
2022-11-12T09:34:56.930Z,90.40
2022-11-12T09:37:42.859Z,90.40
2022-11-12T09:40:42.334Z,90.70
2022-11-12T09:43:50.383Z,90.50
2022-11-12T09:46:57.712Z,90.20
2022-11-12T09:50:10.392Z,88.90
2022-11-12T09:53:05.096Z,88.10
2022-11-12T09:55:51.130Z,87.20
2022-11-12T09:58:37.626Z,86.40
2022-11-12T10:02:00.769Z,82.30
2022-11-12T10:05:12.213Z,81.20
2022-11-12T10:08:21.859Z,81.60
2022-11-12T10:11:24.030Z,79.70
2022-11-12T10:14:24.204Z,79.80
2022-11-12T10:17:24.490Z,78.50
2022-11-12T10:20:39.497Z,77.40
2022-11-12T10:23:33.847Z,77.50
2022-11-12T10:26:23.231Z,77.10
2022-11-12T10:29:12.010Z,76.70
2022-11-12T10:32:00.656Z,77.00
2022-11-12T10:34:46.318Z,75.80
2022-11-12T10:37:49.346Z,76.20
2022-11-12T10:40:37.953Z,75.60
2022-11-12T10:43:25.281Z,75.50
2022-11-12T10:46:27.430Z,75.50
2022-11-12T10:49:16.423Z,74.60
2022-11-12T10:52:02.398Z,74.40
2022-11-12T10:54:53.909Z,75.00
2022-11-12T10:57:40.941Z,74.30
2022-11-12T11:00:26.857Z,74.10
2022-11-12T11:03:20.998Z,73.70
2022-11-12T11:06:23.751Z,73.40
2022-11-12T11:09:12.743Z,72.90
2022-11-12T11:11:59.569Z,73.00
2022-11-12T11:14:45.761Z,73.40
2022-11-12T11:17:31.690Z,73.10
2022-11-12T11:20:56.262Z,71.80
2022-11-12T11:23:56.301Z,72.00
2022-11-12T11:26:52.070Z,71.20
2022-11-12T11:30:01.435Z,71.30
2022-11-12T11:32:53.204Z,71.30
2022-11-12T11:36:06.846Z,70.90
2022-11-12T11:39:03.913Z,69.80
2022-11-12T11:42:30.752Z,70.00
2022-11-12T11:45:37.071Z,70.50
2022-11-12T11:49:01.759Z,70.40
2022-11-12T11:52:13.672Z,69.60
2022-11-12T11:55:09.026Z,68.70
2022-11-12T11:58:03.835Z,69.70
2022-11-12T12:01:07.961Z,68.10
2022-11-12T12:04:31.120Z,67.40
2022-11-12T12:07:35.468Z,68.50
2022-11-12T12:10:46.648Z,68.20
2022-11-12T12:13:58.162Z,68.30
2022-11-12T12:17:02.875Z,68.10
2022-11-12T12:20:03.097Z,66.90
2022-11-12T12:23:09.029Z,67.10
2022-11-12T12:26:00.383Z,66.30
2022-11-12T12:29:07.883Z,65.10
2022-11-12T12:32:14.096Z,64.60
2022-11-12T12:35:06.690Z,63.80
2022-11-12T12:38:20.677Z,64.40
2022-11-12T12:41:31.902Z,64.90
2022-11-12T12:44:17.663Z,63.10
2022-11-12T12:47:04.047Z,63.50
2022-11-12T12:49:51.883Z,63.60
2022-11-12T12:53:03.981Z,64.20
2022-11-12T12:55:51.746Z,63.50
2022-11-12T12:58:49.790Z,62.30
2022-11-12T13:01:36.746Z,62.60
2022-11-12T13:04:54.925Z,63.70
2022-11-12T13:07:47.652Z,62.30
2022-11-12T13:10:39.286Z,62.20
2022-11-12T13:13:32.714Z,62.70
2022-11-12T13:16:50.750Z,62.90
2022-11-12T13:19:46.508Z,62.60
2022-11-12T13:22:38.218Z,62.00
2022-11-12T13:25:30.834Z,62.30
2022-11-12T13:28:17.010Z,62.70
2022-11-12T13:31:04.634Z,62.80
2022-11-12T13:33:50.275Z,62.90
2022-11-12T13:36:36.286Z,62.40
2022-11-12T13:39:23.575Z,62.10
2022-11-12T13:42:33.476Z,62.30
2022-11-12T13:45:24.737Z,62.50
2022-11-12T13:48:17.318Z,63.30
2022-11-12T13:51:12.826Z,63.70
2022-11-12T13:53:58.858Z,63.90
2022-11-12T13:56:44.801Z,63.90
2022-11-12T13:59:30.932Z,63.50
2022-11-12T14:02:22.191Z,63.80
2022-11-12T14:05:16.161Z,65.40
2022-11-12T14:08:55.808Z,65.10
2022-11-12T14:11:52.511Z,65.40
2022-11-12T14:14:56.613Z,65.50
2022-11-12T14:18:13.297Z,65.50
2022-11-12T14:21:04.385Z,65.90
2022-11-12T14:23:50.523Z,66.50
2022-11-12T14:26:43.351Z,67.20
2022-11-12T14:29:34.634Z,67.90
2022-11-12T14:32:22.067Z,68.20
2022-11-12T14:35:28.630Z,68.70
2022-11-12T14:38:26.415Z,69.20
2022-11-12T14:41:20.417Z,69.60
2022-11-12T14:44:13.908Z,69.50
2022-11-12T14:47:00.310Z,69.70
2022-11-12T14:49:48.706Z,70.60
2022-11-12T14:52:41.499Z,70.10
2022-11-12T14:55:33.382Z,70.40
2022-11-12T14:58:21.139Z,70.70
2022-11-12T15:02:20.550Z,70.90
2022-11-12T15:04:54.857Z,71.30
2022-11-12T15:07:59.278Z,71.70
2022-11-12T15:10:45.820Z,71.90
2022-11-12T15:13:39.568Z,73.10
2022-11-12T15:16:34.266Z,72.90
2022-11-12T15:19:22.376Z,73.40
2022-11-12T15:22:20.634Z,73.80
2022-11-12T15:25:22.000Z,74.20
2022-11-12T15:28:24.899Z,74.80
2022-11-12T15:31:20.469Z,75.60
2022-11-12T15:34:27.716Z,76.70
2022-11-12T15:37:19.766Z,77.50
2022-11-12T15:40:21.456Z,78.10
2022-11-12T15:43:21.350Z,78.90
2022-11-12T15:46:17.961Z,79.50
2022-11-12T15:49:11.311Z,80.20
2022-11-12T15:51:57.518Z,80.50
2022-11-12T15:54:43.418Z,80.70
2022-11-12T15:57:32.034Z,81.40
2022-11-12T16:00:23.638Z,82.40
2022-11-12T16:03:15.565Z,82.80
2022-11-12T16:06:05.683Z,83.70
2022-11-12T16:08:54.431Z,84.40
2022-11-12T16:11:40.472Z,85.10
2022-11-12T16:14:27.733Z,85.30
2022-11-12T16:17:16.026Z,86.20
2022-11-12T16:20:01.999Z,86.70
2022-11-12T16:22:49.125Z,87.40
2022-11-12T16:25:37.429Z,87.90
2022-11-12T16:28:23.228Z,88.40
2022-11-12T16:31:10.403Z,88.80
2022-11-12T16:33:56.442Z,89.10
2022-11-12T16:36:42.526Z,89.40
2022-11-12T16:39:28.602Z,89.60
2022-11-12T16:42:14.487Z,90.10
2022-11-12T16:45:00.333Z,90.50
2022-11-12T16:47:51.565Z,90.70
2022-11-12T16:50:37.483Z,90.80
2022-11-12T16:53:23.163Z,90.90
2022-11-12T16:56:20.689Z,90.90
2022-11-12T16:59:06.649Z,91.00
2022-11-12T17:01:52.388Z,91.00
2022-11-12T17:04:38.289Z,91.10
2022-11-12T17:07:24.356Z,91.20
2022-11-12T17:10:10.415Z,91.40
2022-11-12T17:12:56.145Z,91.60
2022-11-12T17:15:41.747Z,91.80
2022-11-12T17:18:27.824Z,92.00
2022-11-12T17:21:16.652Z,92.00
2022-11-12T17:24:02.660Z,92.10
2022-11-12T17:26:48.612Z,92.20
2022-11-12T17:29:34.998Z,92.30
2022-11-12T17:32:21.212Z,92.30
2022-11-12T17:35:07.633Z,92.20
2022-11-12T17:37:53.434Z,92.10
2022-11-12T17:40:39.347Z,92.30
2022-11-12T17:43:26.324Z,92.30
2022-11-12T17:46:14.662Z,92.30
2022-11-12T17:49:00.395Z,92.30
2022-11-12T17:51:46.650Z,92.80
2022-11-12T17:54:32.625Z,92.60
2022-11-12T17:57:18.640Z,92.60
2022-11-12T18:00:04.719Z,92.40
2022-11-12T18:02:51.900Z,92.40
2022-11-12T18:05:38.133Z,92.40
2022-11-12T18:08:24.141Z,92.30
2022-11-12T18:11:11.449Z,92.80
2022-11-12T18:13:57.515Z,92.80
2022-11-12T18:16:43.548Z,93.00
2022-11-12T18:19:29.137Z,93.20
2022-11-12T18:22:15.551Z,93.30
2022-11-12T18:25:00.999Z,93.30
2022-11-12T18:27:47.144Z,93.30
2022-11-12T18:30:34.100Z,93.20
2022-11-12T18:33:19.731Z,93.10
2022-11-12T18:36:07.630Z,93.10
2022-11-12T18:38:55.527Z,93.10
2022-11-12T18:41:41.240Z,93.00
2022-11-12T18:44:27.185Z,93.00
2022-11-12T18:47:12.686Z,92.80
2022-11-12T18:49:58.547Z,92.80
2022-11-12T18:52:44.391Z,92.80
2022-11-12T18:55:30.246Z,92.80
2022-11-12T18:58:16.147Z,92.90
2022-11-12T19:01:08.816Z,92.90
2022-11-12T19:03:56.114Z,92.90
2022-11-12T19:06:42.177Z,93.00
2022-11-12T19:09:28.003Z,93.00
2022-11-12T19:12:14.023Z,92.80
2022-11-12T19:15:00.009Z,92.80
2022-11-12T19:17:46.335Z,92.80
2022-11-12T19:20:32.249Z,92.80
2022-11-12T19:23:17.975Z,93.00
2022-11-12T19:26:06.199Z,92.80
2022-11-12T19:28:54.007Z,92.70
2022-11-12T19:31:40.834Z,92.70
2022-11-12T19:34:26.900Z,92.70
2022-11-12T19:37:32.392Z,92.60
2022-11-12T19:40:18.768Z,92.60
2022-11-12T19:43:04.710Z,92.70
2022-11-12T19:45:50.636Z,92.60
2022-11-12T19:48:37.143Z,92.70
2022-11-12T19:51:24.316Z,92.60
2022-11-12T19:54:10.291Z,92.70
2022-11-12T19:56:56.190Z,92.90
2022-11-12T19:59:41.843Z,92.80
2022-11-12T20:02:27.583Z,92.80
2022-11-12T20:05:13.960Z,92.90
2022-11-12T20:08:00.031Z,93.10
2022-11-12T20:10:45.776Z,93.00
2022-11-12T20:13:32.302Z,93.10
2022-11-12T20:16:23.920Z,93.20
2022-11-12T20:19:10.819Z,93.30
2022-11-12T20:21:57.295Z,93.30
2022-11-12T20:24:43.429Z,93.20
2022-11-12T20:27:29.241Z,93.30
2022-11-12T20:30:15.071Z,93.50
2022-11-12T20:33:01.361Z,93.40
2022-11-12T20:35:47.398Z,93.40
2022-11-12T20:38:37.634Z,93.30
2022-11-12T20:41:25.287Z,93.30
2022-11-12T20:44:11.524Z,93.20
2022-11-12T20:46:57.170Z,93.30
2022-11-12T20:49:43.256Z,93.30
2022-11-12T20:52:29.363Z,93.20
2022-11-12T20:55:15.285Z,93.20
2022-11-12T20:58:01.232Z,93.20
2022-11-12T21:00:49.264Z,93.10
2022-11-12T21:03:39.529Z,93.40
2022-11-12T21:06:27.463Z,93.00
2022-11-12T21:09:13.766Z,92.90
2022-11-12T21:11:59.453Z,92.80
2022-11-12T21:14:50.166Z,92.80
2022-11-12T21:17:36.096Z,92.80
2022-11-12T21:20:22.108Z,93.00
2022-11-12T21:23:08.600Z,93.00
2022-11-12T21:25:54.367Z,92.90
2022-11-12T21:28:45.547Z,92.80
2022-11-12T21:31:31.942Z,92.70
2022-11-12T21:34:18.012Z,92.80
2022-11-12T21:37:04.044Z,93.10
2022-11-12T21:39:50.109Z,93.20
2022-11-12T21:42:35.929Z,93.20
2022-11-12T21:45:22.191Z,93.20
2022-11-12T21:48:08.319Z,93.30
2022-11-12T21:50:54.163Z,93.30
2022-11-12T21:53:41.315Z,93.40
2022-11-12T21:56:27.627Z,93.30
2022-11-12T21:59:13.438Z,93.40
2022-11-12T22:01:59.277Z,93.50
2022-11-12T22:04:45.226Z,93.50
2022-11-12T22:07:31.016Z,93.50
2022-11-12T22:10:17.320Z,93.50
2022-11-12T22:13:25.794Z,93.50
2022-11-12T22:16:13.814Z,93.50
2022-11-12T22:19:00.479Z,93.40
2022-11-12T22:21:46.571Z,93.40
2022-11-12T22:24:32.317Z,93.50
2022-11-12T22:27:18.213Z,93.60
2022-11-12T22:30:04.579Z,93.40
2022-11-12T22:32:50.382Z,93.50
2022-11-12T22:35:36.967Z,93.70
2022-11-12T22:38:22.689Z,93.80
2022-11-12T22:41:11.153Z,93.70
2022-11-12T22:43:59.585Z,93.60
2022-11-12T22:46:45.754Z,93.70
2022-11-12T22:49:31.443Z,93.70
2022-11-12T22:52:17.495Z,93.70
2022-11-12T22:55:04.148Z,93.70
2022-11-12T22:57:50.011Z,93.80
2022-11-12T23:00:36.068Z,93.80
2022-11-12T23:03:21.722Z,93.90
2022-11-12T23:06:08.072Z,93.90
2022-11-12T23:08:54.800Z,93.90
2022-11-12T23:11:41.148Z,93.90
2022-11-12T23:14:27.411Z,93.80
2022-11-12T23:17:13.216Z,93.90
2022-11-12T23:19:58.786Z,93.90
2022-11-12T23:22:44.715Z,93.90
2022-11-12T23:25:33.794Z,93.90
2022-11-12T23:28:19.621Z,94.10
2022-11-12T23:31:09.813Z,93.90
2022-11-12T23:33:57.389Z,94.00
2022-11-12T23:36:43.132Z,94.00
2022-11-12T23:39:28.903Z,93.90
2022-11-12T23:42:14.684Z,93.80
2022-11-12T23:45:00.698Z,93.90
2022-11-12T23:47:46.574Z,93.80
2022-11-12T23:50:32.385Z,93.80
2022-11-12T23:53:18.690Z,93.70
2022-11-12T23:56:06.474Z,93.70
2022-11-12T23:58:54.742Z,93.60
